x

Fairweather Ground 105nm West Of Juno, Ak (46083) Wave Buoy

4:50pm - Sun 30th Apr 2017 All times are AKDT. -8 hours from GMT.

  • Sig Wave height 4.6ft
  • Swell Direction
  • Peak Period 10s
  • Average Period 7s
  • Wind
    7mph, 11mph gusts
  • Sea Temp 46°f
  • Air Temp 45°f
  • Sea Pressure 1018.1mb
  • Fairweather Ground 105nm West  Of Juno, Ak
  • Fairweather Ground 105nm West  Of Juno, Ak

More Historic Weather Station data

Upgrade to MSW Pro to gain access to the past 30 days of data for over 8000 Wavebouys and Weather Stations around the globe.

Join Pro

Comparision Forecast

View Surf forecast
   
Sun 04/30 4:50pm 4.5ft 10s 7s 7 11 mph 1018.1mb 46f 45f
3:50pm 4.5ft 10s 6s 11 13 mph 1018.1mb 46f 44f
2:50pm 5ft 10s 7s 7
mph
1017.9mb 46f 45f
1:50pm 5ft 10s 7s 9 11 mph 1017.7mb 46f 45f
12:50pm 5ft 10s 7s 9 11 mph 1017.5mb 45f 45f
11:50am 6ft 10s 7s 9 13 mph 1016.9mb 45f 45f
10:50am 5.5ft 10s 7s 11 13 mph 1016.4mb 45f 45f
9:50am 6ft 10s 7s 9 11 mph 1015.7mb 45f 45f
8:50am 6ft 10s 7s 9 11 mph 1015mb 45f 45f
7:50am 6.5ft 11s 7s 13 16 mph 1014.1mb 45f 45f
6:50am 6.5ft 11s 7s 13 18 mph 1013.3mb 45f 45f
3:50am 6.5ft 11s 7s 18 22 mph 1011.3mb 45f 45f
2:50am 5ft 11s 6s 20 22 mph 1010.9mb 45f 45f
1:50am 5ft 11s 5s 18 20 mph 1010.8mb 45f 45f
12:50am 4.5ft 11s 5s 18 22 mph 1010.7mb 45f 45f
Sat 04/29 11:50pm 4ft 15s 5s 18 22 mph 1010.1mb 45f 45f
10:50pm 4ft 5s 5s 20 25 mph 1009.9mb 45f 45f
9:50pm 4ft 10s 5s 18 22 mph 1009.4mb 45f 45f
8:50pm 3.5ft 9s 5s 18 20 mph 1009.3mb 45f 45f
7:50pm 3.5ft 15s 5s 16 20 mph 1009.3mb 45f 45f
6:50pm 3.5ft 15s 5s 13 16 mph 1009.4mb 45f 45f
3:50pm 3.5ft 15s 5s 16 20 mph 1010mb 45f 44f
2:50pm 3.5ft 15s 6s 16 18 mph 1010.8mb 45f 44f
1:50pm 3.5ft 15s 6s 13 16 mph 1011.4mb 45f 44f
12:50pm 3.5ft 15s 6s 13 16 mph 1012mb 45f 44f
11:50am 3.5ft 14s 6s 13 16 mph 1012.3mb 45f 44f
10:50am 3.5ft 16s 6s 13 16 mph 1013.2mb 45f 44f
9:50am 4ft 15s 6s 13 16 mph 1013.8mb 45f 44f
8:50am 3.5ft 14s 5s 9 11 mph 1014.4mb 45f 44f
7:50am 4ft 16s 5s 11 13 mph 1015.1mb 45f 44f
6:50am 4.5ft 10s 5s 16 18 mph 1015.7mb 45f 44f
5:50am 4.5ft 10s 5s 16 18 mph 1016.6mb 45f 44f
4:50am 4ft 10s 5s 13 18 mph 1017.5mb 45f 43f
3:50am 4ft 15s 5s 13 18 mph 1018.9mb 45f 43f
2:50am 3.5ft 10s 6s 13 16 mph 1019.7mb 45f 43f
1:50am 3.5ft 9s 6s 16 18 mph 1020.3mb 45f 43f
12:50am 4.5ft 10s 6s 13 18 mph 1021.2mb 45f 44f
Fri 04/28 11:50pm 4.5ft 10s 7s 13 16 mph 1022.2mb 45f 43f
10:50pm 4.5ft 11s 7s 13 16 mph 1022.9mb 45f 43f
9:50pm 4.5ft 16s 7s 9 11 mph 1023.4mb 45f 44f
8:50pm 5ft 9s 7s 9 11 mph 1024mb 46f 44f
7:50pm 4.5ft 9s 6s 7 9 mph 1024.3mb 46f 44f
6:50pm 5ft 9s 6s 7
mph
1024.6mb 46f 44f
5:50pm 4.5ft 9s 6s 7
mph
1024.9mb 46f 45f
4:50pm 5ft 9s 6s 9 11 mph 1025.3mb 46f 44f
3:50pm 5ft 8s 6s 11 13 mph 1025.4mb 45f 44f
2:50pm 5ft 10s 6s 9 11 mph 1025.3mb 45f 45f
1:50pm 5ft 10s 6s 9 11 mph 1025.1mb 45f 45f
12:50pm 5ft 7s 6s 9 11 mph 1025mb 45f 45f
11:50am 5ft 9s 6s 11 16 mph 1024.8mb 45f 45f
10:50am 5ft 7s 6s 9
mph
1024.6mb 45f 44f
9:50am 5ft 7s 6s 9 11 mph 1024mb 45f 44f
8:50am 5ft 8s 6s 11 13 mph 1023.4mb 45f 44f
7:50am 6ft 8s 7s 11 16 mph 1022.9mb 45f 44f
6:50am 5.5ft 8s 6s 11 16 mph 1022.3mb 45f 44f
5:50am 5.5ft 7s 7s 16 18 mph 1021.5mb 45f 44f
2:50am 6ft 8s 7s 7 9 mph 1019.9mb 45f 45f
1:50am 6.5ft 8s 7s 9 11 mph 1019.3mb 45f 44f
12:50am 6ft 10s 7s 11 13 mph 1018.7mb 45f 45f
Thu 04/27 11:50pm 6ft 8s 7s 11 13 mph 1018mb 45f 45f
10:50pm 6ft 9s 7s 9 11 mph 1017.4mb 45f 45f
9:50pm 6.5ft 10s 7s 9
mph
1016.7mb 45f 45f
8:50pm 6.5ft 9s 7s 9 11 mph 1016mb 45f 45f
7:50pm 7ft 9s 7s 7 9 mph 1015.2mb 45f 45f
6:50pm 7ft 10s 7s 7 11 mph 1014.4mb 45f 46f
5:50pm 7ft 10s 7s 7 9 mph 1013.4mb 45f 46f
3:50pm 7.5ft 8s 6s 16 20 mph 1011.5mb 45f 46f
2:50pm 7.5ft 8s 6s 18 22 mph 1010.9mb 45f 46f
1:50pm 7ft 9s 6s 16 18 mph 1010.3mb 45f 47f
12:50pm 7ft 10s 6s 22 27 mph 1008.8mb 45f 47f
11:50am 7ft 9s 6s 25 29 mph 1008.1mb 45f 47f
10:50am 7ft 8s 6s 22 27 mph 1007.6mb 45f 46f
9:50am 7.5ft 10s 6s 20 22 mph 1007.3mb 45f 46f
8:50am 7ft 10s 6s 18 22 mph 1007mb 45f 45f
7:50am 6ft 9s 5s 22 25 mph 1006.3mb 45f 45f
6:50am 6ft 9s 6s 25 29 mph 1005.9mb 45f 44f
5:50am 6ft 9s 6s 18 25 mph 1005.3mb 45f 44f
4:50am 5ft 9s 6s 20 22 mph 1004.6mb 45f 43f
3:50am 5.5ft 10s 6s 20 25 mph 1003.6mb 45f 44f
2:50am 5ft 9s 6s 22 25 mph 1002.6mb 45f 44f